^^
Grace C. Lehan Memorial Weather Station Historical Data
Daily Summary for September 25, 2021 Units:  Both    English   Metric
Daily Weekly Monthly Yearly
  High: Low: Average:
Temperature: 54 °F /  12.2 °C 50.4 °F /  10.2 °C 52.3 °F /  11.3 °C
Dew Point: 52.9 °F /  11.6 °C 48.9 °F /  9.4 °C 51 °F /  10.6 °C
Humidity: 96% 90% 95%
Wind Speed: 1mph /  1.6km/h - 0.1mph /  0.2km/h
Wind Gust: 13mph /  20.9km/h - -
Wind- - SSE
Pressure: 30.14 in /  1020.5 hPa 29.83 in /  1010 hPa -
Precipitation: 0.37 in /  9.4 mm    
 
 
Tabular Data for September 25, 2021
Time Temperature Dew Point Pressure Wind Wind Speed Wind Gust Humidity Rainfall Rate (Hourly) solar
00:00 52.3 °F /  11.3 °C 49.5 °F /  9.7 °C 30.14in /  1020.5hPa Calm     90% 0.03in /  0.76mm 0 W/m2
00:09 52.3 °F /  11.3 °C 49.4 °F /  9.7 °C 30.13in /  1020.2hPa Calm     90% 0.03in /  0.76mm 0 W/m2
00:14 52.1 °F /  11.2 °C 49.3 °F /  9.6 °C 30.13in /  1020.2hPa Calm     90% 0.03in /  0.76mm 0 W/m2
00:19 51.9 °F /  11.1 °C 49.1 °F /  9.5 °C 30.13in /  1020.2hPa Calm     90.1% 0.03in /  0.76mm 0 W/m2
00:24 51.9 °F /  11.1 °C 49.4 °F /  9.7 °C 30.13in /  1020.2hPa Calm     91% 0.03in /  0.76mm 0 W/m2
00:29 51.8 °F /  11 °C 49.3 °F /  9.6 °C 30.13in /  1020.2hPa Calm     91% 0.03in /  0.76mm 0 W/m2
00:34 51.9 °F /  11.1 °C 49.3 °F /  9.6 °C 30.13in /  1020.2hPa Calm     91% 0.03in /  0.76mm 0 W/m2
00:39 51.9 °F /  11.1 °C 49.3 °F /  9.6 °C 30.13in /  1020.2hPa Calm     91% 0.02in /  0.51mm 0 W/m2
00:44 51.8 °F /  11 °C 49.2 °F /  9.6 °C 30.13in /  1020.2hPa Calm     91% 0.02in /  0.51mm 0 W/m2
00:49 51.7 °F /  10.9 °C 49.2 °F /  9.6 °C 30.13in /  1020.2hPa Calm     91% 0.02in /  0.51mm 0 W/m2
00:54 51.6 °F /  10.9 °C 49.2 °F /  9.6 °C 30.13in /  1020.2hPa Calm     91.6% 0.02in /  0.51mm 0 W/m2
00:59 51.5 °F /  10.8 °C 49.2 °F /  9.6 °C 30.13in /  1020.2hPa Calm     92% 0.03in /  0.76mm 0 W/m2
01:04 51.4 °F /  10.8 °C 49.2 °F /  9.6 °C 30.13in /  1020.2hPa Calm     92% 0.03in /  0.76mm 0 W/m2
01:09 51.4 °F /  10.8 °C 49.1 °F /  9.5 °C 30.13in /  1020.2hPa Calm     92% 0.03in /  0.76mm 0 W/m2
01:14 51.3 °F /  10.7 °C 49.1 °F /  9.5 °C 30.13in /  1020.2hPa Calm     92% 0.03in /  0.76mm 0 W/m2
01:19 51.3 °F /  10.7 °C 49.1 °F /  9.5 °C 30.12in /  1019.9hPa Calm     92% 0.04in /  1.02mm 0 W/m2
01:24 51.3 °F /  10.7 °C 49.1 °F /  9.5 °C 30.12in /  1019.9hPa Calm     92% 0.04in /  1.02mm 0 W/m2
01:29 51.3 °F /  10.7 °C 49.1 °F /  9.5 °C 30.11in /  1019.5hPa Calm     92% 0.04in /  1.02mm 0 W/m2
01:34 51.3 °F /  10.7 °C 49.3 °F /  9.6 °C 30.11in /  1019.5hPa Calm     92.9% 0.05in /  1.27mm 0 W/m2
01:39 51.3 °F /  10.7 °C 49.3 °F /  9.6 °C 30.11in /  1019.5hPa Calm   1mph /  1.6km/h 93% 0.05in /  1.27mm 0 W/m2
01:44 51.2 °F /  10.7 °C 49.3 °F /  9.6 °C 30.11in /  1019.5hPa Calm   1mph /  1.6km/h 93% 0.05in /  1.27mm 0 W/m2
01:49 51.2 °F /  10.7 °C 49.3 °F /  9.6 °C 30.11in /  1019.5hPa Calm   1mph /  1.6km/h 93% 0.05in /  1.27mm 0 W/m2
01:54 51.1 °F /  10.6 °C 49.2 °F /  9.6 °C 30.11in /  1019.5hPa Calm   1mph /  1.6km/h 93% 0.06in /  1.52mm 0 W/m2
01:59 51 °F /  10.6 °C 49.1 °F /  9.5 °C 30.11in /  1019.5hPa Calm   1mph /  1.6km/h 93% 0.07in /  1.78mm 0 W/m2
02:04 50.9 °F /  10.5 °C 49 °F /  9.4 °C 30.10in /  1019.2hPa Calm   1mph /  1.6km/h 93% 0.07in /  1.78mm 0 W/m2
02:09 50.9 °F /  10.5 °C 48.9 °F /  9.4 °C 30.10in /  1019.2hPa Calm     93% 0.06in /  1.52mm 0 W/m2
02:14 50.9 °F /  10.5 °C 48.9 °F /  9.4 °C 30.10in /  1019.2hPa Calm     93% 0.07in /  1.78mm 0 W/m2
02:19 50.9 °F /  10.5 °C 49 °F /  9.4 °C 30.10in /  1019.2hPa Calm     93% 0.08in /  2.03mm 0 W/m2
02:24 50.9 °F /  10.5 °C 49.2 °F /  9.6 °C 30.10in /  1019.2hPa Calm     93.9% 0.08in /  2.03mm 0 W/m2
02:29 50.9 °F /  10.5 °C 49.2 °F /  9.6 °C 30.09in /  1018.8hPa Calm     94% 0.09in /  2.29mm 0 W/m2
02:34 50.9 °F /  10.5 °C 49.2 °F /  9.6 °C 30.09in /  1018.8hPa Calm     94% 0.09in /  2.29mm 0 W/m2
02:39 51 °F /  10.6 °C 49.3 °F /  9.6 °C 30.09in /  1018.8hPa Calm     94% 0.09in /  2.29mm 0 W/m2
02:44 51 °F /  10.6 °C 49.3 °F /  9.6 °C 30.09in /  1018.8hPa Calm     94% 0.10in /  2.54mm 0 W/m2
02:49 50.9 °F /  10.5 °C 49.3 °F /  9.6 °C 30.09in /  1018.8hPa Calm     94% 0.11in /  2.79mm 0 W/m2
02:54 51 °F /  10.6 °C 49.3 °F /  9.6 °C 30.09in /  1018.8hPa Calm     94% 0.12in /  3.05mm 0 W/m2
02:59 51 °F /  10.6 °C 49.3 °F /  9.6 °C 30.09in /  1018.8hPa Calm     94% 0.13in /  3.3mm 0 W/m2
03:04 50.9 °F /  10.5 °C 49.3 °F /  9.6 °C 30.08in /  1018.5hPa Calm     94% 0.13in /  3.3mm 0 W/m2
03:09 50.9 °F /  10.5 °C 49.2 °F /  9.6 °C 30.08in /  1018.5hPa Calm     94% 0.12in /  3.05mm 0 W/m2
03:14 50.9 °F /  10.5 °C 49.2 °F /  9.6 °C 30.08in /  1018.5hPa Calm     94% 0.13in /  3.3mm 0 W/m2
03:19 50.9 °F /  10.5 °C 49.2 °F /  9.6 °C 30.08in /  1018.5hPa Calm     94% 0.14in /  3.56mm 0 W/m2
03:24 50.9 °F /  10.5 °C 49.2 °F /  9.6 °C 30.08in /  1018.5hPa Calm     94% 0.15in /  3.81mm 0 W/m2
03:29 50.9 °F /  10.5 °C 49.2 °F /  9.6 °C 30.07in /  1018.2hPa Calm     94% 0.16in /  4.06mm 0 W/m2
03:34 50.9 °F /  10.5 °C 49.2 °F /  9.6 °C 30.07in /  1018.2hPa Calm     94% 0.16in /  4.06mm 0 W/m2
03:39 50.9 °F /  10.5 °C 49.3 °F /  9.6 °C 30.07in /  1018.2hPa Calm     94% 0.13in /  3.3mm 0 W/m2
03:44 51 °F /  10.6 °C 49.3 °F /  9.6 °C 30.06in /  1017.8hPa Calm     94% 0.14in /  3.56mm 0 W/m2
03:49 51 °F /  10.6 °C 49.3 °F /  9.6 °C 30.06in /  1017.8hPa Calm     94% 0.14in /  3.56mm 0 W/m2
03:54 51 °F /  10.6 °C 49.3 °F /  9.6 °C 30.06in /  1017.8hPa Calm     94% 0.14in /  3.56mm 0 W/m2
03:59 51 °F /  10.6 °C 49.4 °F /  9.7 °C 30.05in /  1017.5hPa Calm     94.1% 0.14in /  3.56mm 0 W/m2
04:09 51 °F /  10.6 °C 49.6 °F /  9.8 °C 30.05in /  1017.5hPa Calm     95% 0.15in /  3.81mm 0 W/m2
04:14 51 °F /  10.6 °C 49.6 °F /  9.8 °C 30.05in /  1017.5hPa Calm     95% 0.15in /  3.81mm 0 W/m2
04:19 51.1 °F /  10.6 °C 49.7 °F /  9.8 °C 30.05in /  1017.5hPa Calm     95% 0.15in /  3.81mm 0 W/m2
04:24 51.1 °F /  10.6 °C 49.7 °F /  9.8 °C 30.04in /  1017.2hPa Calm     95% 0.16in /  4.06mm 0 W/m2
04:29 51.1 °F /  10.6 °C 49.7 °F /  9.8 °C 30.04in /  1017.2hPa Calm     95% 0.16in /  4.06mm 0 W/m2
04:34 51.1 °F /  10.6 °C 49.7 °F /  9.8 °C 30.04in /  1017.2hPa Calm     95% 0.16in /  4.06mm 0 W/m2
04:39 51.2 °F /  10.7 °C 49.8 °F /  9.9 °C 30.04in /  1017.2hPa Calm     95% 0.05in /  1.27mm 0 W/m2
04:44 51.2 °F /  10.7 °C 49.8 °F /  9.9 °C 30.04in /  1017.2hPa Calm     95% 0.05in /  1.27mm 0 W/m2
04:49 51.2 °F /  10.7 °C 49.8 °F /  9.9 °C 30.03in /  1016.8hPa Calm     95% 0.05in /  1.27mm 0 W/m2
04:53 51.2 °F /  10.7 °C 49.8 °F /  9.9 °C 30.03in /  1016.8hPa Calm     95% 0.05in /  1.27mm 0 W/m2
04:59 51.2 °F /  10.7 °C 49.8 °F /  9.9 °C 30.03in /  1016.8hPa Calm     95% 0.05in /  1.27mm 0 W/m2
05:04 51.3 °F /  10.7 °C 49.9 °F /  9.9 °C 30.03in /  1016.8hPa Calm     95% 0.05in /  1.27mm 0 W/m2
05:09 51.4 °F /  10.8 °C 50 °F /  10 °C 30.03in /  1016.8hPa Calm     95% 0.01in /  0.25mm 0 W/m2
05:14 51.4 °F /  10.8 °C 50.1 °F /  10.1 °C 30.03in /  1016.8hPa Calm     95% 0.01in /  0.25mm 0 W/m2
05:19 51.5 °F /  10.8 °C 50.1 °F /  10.1 °C 30.03in /  1016.8hPa Calm     95% 0.02in /  0.51mm 0 W/m2
05:24 51.5 °F /  10.8 °C 50.1 °F /  10.1 °C 30.03in /  1016.8hPa Calm     95% 0.02in /  0.51mm 0 W/m2
05:29 51.5 °F /  10.8 °C 50.1 °F /  10.1 °C 30.02in /  1016.5hPa Calm     95% 0.02in /  0.51mm 0 W/m2
05:34 51.5 °F /  10.8 °C 50.1 °F /  10.1 °C 30.02in /  1016.5hPa Calm     95% 0.02in /  0.51mm 0 W/m2
05:39 51.5 °F /  10.8 °C 50.1 °F /  10.1 °C 30.02in /  1016.5hPa Calm     95% 0.02in /  0.51mm 0 W/m2
05:44 51.5 °F /  10.8 °C 50.1 °F /  10.1 °C 30.02in /  1016.5hPa Calm     95% 0.02in /  0.51mm 0 W/m2
05:49 51.6 °F /  10.9 °C 50.2 °F /  10.1 °C 30.02in /  1016.5hPa Calm     95% 0.02in /  0.51mm 0 W/m2
05:54 51.6 °F /  10.9 °C 50.2 °F /  10.1 °C 30.02in /  1016.5hPa Calm     95% 0.02in /  0.51mm 0 W/m2
05:59 51.6 °F /  10.9 °C 50.2 °F /  10.1 °C 30.02in /  1016.5hPa Calm     95% 0.02in /  0.51mm 0 W/m2
06:04 51.6 °F /  10.9 °C 50.2 °F /  10.1 °C 30.02in /  1016.5hPa Calm     95% 0.02in /  0.51mm 0 W/m2
06:09 51.6 °F /  10.9 °C 50.2 °F /  10.1 °C 30.03in /  1016.8hPa Calm   1mph /  1.6km/h 95% 0.03in /  0.76mm 0 W/m2
06:14 51.6 °F /  10.9 °C 50.2 °F /  10.1 °C 30.03in /  1016.8hPa Calm   1mph /  1.6km/h 95% 0.04in /  1.02mm 0 W/m2
06:19 51.5 °F /  10.8 °C 50.1 °F /  10.1 °C 30.03in /  1016.8hPa NNW 0.1mph /  0.2km/h 1mph /  1.6km/h 95% 0.05in /  1.27mm 0 W/m2
06:24 51.5 °F /  10.8 °C 50.1 °F /  10.1 °C 30.03in /  1016.8hPa NNE 0.2mph /  0.3km/h 1mph /  1.6km/h 95% 0.05in /  1.27mm 0 W/m2
06:29 51.5 °F /  10.8 °C 50.1 °F /  10.1 °C 30.02in /  1016.5hPa NE 0.2mph /  0.3km/h 1mph /  1.6km/h 95% 0.06in /  1.52mm 0 W/m2
06:34 51.6 °F /  10.9 °C 50.2 °F /  10.1 °C 30.03in /  1016.8hPa NE 0.2mph /  0.3km/h 2mph /  3.2km/h 95% 0.06in /  1.52mm 0 W/m2
06:39 51.7 °F /  10.9 °C 50.3 °F /  10.2 °C 30.03in /  1016.8hPa Calm   2mph /  3.2km/h 95% 0.05in /  1.27mm 0 W/m2
06:44 51.7 °F /  10.9 °C 50.3 °F /  10.2 °C 30.02in /  1016.5hPa Calm   2mph /  3.2km/h 95% 0.06in /  1.52mm 0 W/m2
06:49 51.7 °F /  10.9 °C 50.5 °F /  10.3 °C 30.02in /  1016.5hPa Calm   2mph /  3.2km/h 95.6% 0.06in /  1.52mm 0 W/m2
06:54 51.8 °F /  11 °C 50.7 °F /  10.4 °C 30.01in /  1016.1hPa Calm   2mph /  3.2km/h 96% 0.06in /  1.52mm 0 W/m2
06:59 51.8 °F /  11 °C 50.6 °F /  10.3 °C 30.00in /  1015.8hPa NE 0.5mph /  0.8km/h 2mph /  3.2km/h 95.7% 0.06in /  1.52mm 0 W/m2
07:04 51.8 °F /  11 °C 50.5 °F /  10.3 °C 30.00in /  1015.8hPa Calm   2mph /  3.2km/h 95.3% 0.06in /  1.52mm 0 W/m2
07:09 51.9 °F /  11.1 °C 50.6 °F /  10.3 °C 30.01in /  1016.1hPa Calm     95.5% 0.06in /  1.52mm 0 W/m2
07:14 51.9 °F /  11.1 °C 50.8 °F /  10.4 °C 30.01in /  1016.1hPa Calm     96% 0.06in /  1.52mm 0 W/m2
07:19 52 °F /  11.1 °C 50.9 °F /  10.5 °C 30.00in /  1015.8hPa Calm     96% 0.06in /  1.52mm 0 W/m2
07:24 52 °F /  11.1 °C 50.9 °F /  10.5 °C 30.01in /  1016.1hPa Calm     96% 0.06in /  1.52mm 0 W/m2
07:29 52.1 °F /  11.2 °C 51 °F /  10.6 °C 30.01in /  1016.1hPa Calm     96% 0.06in /  1.52mm 0 W/m2
07:34 52.2 °F /  11.2 °C 51.1 °F /  10.6 °C 30.01in /  1016.1hPa Calm     96% 0.06in /  1.52mm 0 W/m2
07:39 52.4 °F /  11.3 °C 51.3 °F /  10.7 °C 30.01in /  1016.1hPa Calm   1mph /  1.6km/h 96% 0.01in /  0.25mm 5 W/m2
07:44 52.5 °F /  11.4 °C 51.4 °F /  10.8 °C 30.00in /  1015.8hPa Calm   1mph /  1.6km/h 96% 0.01in /  0.25mm 5 W/m2
07:49 52.6 °F /  11.4 °C 51.5 °F /  10.8 °C 30.00in /  1015.8hPa Calm   1mph /  1.6km/h 96% 0.01in /  0.25mm 5 W/m2
07:54 52.6 °F /  11.4 °C 51.5 °F /  10.8 °C 30.00in /  1015.8hPa Calm   1mph /  1.6km/h 96% 0.01in /  0.25mm 0 W/m2
07:59 52.5 °F /  11.4 °C 51.4 °F /  10.8 °C 30.00in /  1015.8hPa Calm   1mph /  1.6km/h 96% 0.01in /  0.25mm 5 W/m2
08:00 52.5 °F /  11.4 °C 51.4 °F /  10.8 °C 30.00in /  1015.8hPa Calm   1mph /  1.6km/h 96% 0.01in /  0.25mm 5 W/m2
08:09 52.3 °F /  11.3 °C 51.2 °F /  10.7 °C 29.99in /  1015.5hPa Calm   1mph /  1.6km/h 96% 0.00in /  0mm 7 W/m2
08:14 52.3 °F /  11.3 °C 51.2 °F /  10.7 °C 29.99in /  1015.5hPa Calm   1mph /  1.6km/h 96% 0.00in /  0mm 9 W/m2
08:19 52.3 °F /  11.3 °C 51.2 °F /  10.7 °C 29.99in /  1015.5hPa Calm   1mph /  1.6km/h 96% 0.00in /  0mm 9 W/m2
08:24 52.2 °F /  11.2 °C 51.1 °F /  10.6 °C 29.99in /  1015.5hPa Calm   1mph /  1.6km/h 96% 0.00in /  0mm 5 W/m2
08:29 52.2 °F /  11.2 °C 51.1 °F /  10.6 °C 29.98in /  1015.1hPa ENE 0.1mph /  0.2km/h 1mph /  1.6km/h 96% 0.00in /  0mm 7 W/m2
08:34 52.1 °F /  11.2 °C 51 °F /  10.6 °C 29.99in /  1015.5hPa Calm   1mph /  1.6km/h 96% 0.00in /  0mm 5 W/m2
08:39 52.1 °F /  11.2 °C 51 °F /  10.6 °C 29.99in /  1015.5hPa ENE 0.1mph /  0.2km/h 1mph /  1.6km/h 96% 0.00in /  0mm 12 W/m2
08:44 52.1 °F /  11.2 °C 51 °F /  10.6 °C 29.99in /  1015.5hPa ENE 0.1mph /  0.2km/h 2mph /  3.2km/h 96% 0.00in /  0mm 14 W/m2
08:49 52.1 °F /  11.2 °C 51 °F /  10.6 °C 29.99in /  1015.5hPa North 0.3mph /  0.5km/h 2mph /  3.2km/h 96% 0.00in /  0mm 19 W/m2
08:54 52.1 °F /  11.2 °C 51 °F /  10.6 °C 29.99in /  1015.5hPa Calm   2mph /  3.2km/h 96% 0.00in /  0mm 18 W/m2
08:59 52.1 °F /  11.2 °C 51 °F /  10.6 °C 30.00in /  1015.8hPa WNW 0.1mph /  0.2km/h 2mph /  3.2km/h 96% 0.00in /  0mm 21 W/m2
09:04 52.1 °F /  11.2 °C 51 °F /  10.6 °C 29.99in /  1015.5hPa NNW 0.2mph /  0.3km/h 2mph /  3.2km/h 96% 0.00in /  0mm 21 W/m2
09:09 52.1 °F /  11.2 °C 51 °F /  10.6 °C 29.99in /  1015.5hPa NNW 0.1mph /  0.2km/h 1mph /  1.6km/h 96% 0.00in /  0mm 19 W/m2
09:14 52.1 °F /  11.2 °C 51 °F /  10.6 °C 29.99in /  1015.5hPa North 0.1mph /  0.2km/h 1mph /  1.6km/h 96% 0.00in /  0mm 23 W/m2
09:19 52.1 °F /  11.2 °C 51 °F /  10.6 °C 29.99in /  1015.5hPa Calm   1mph /  1.6km/h 96% 0.00in /  0mm 21 W/m2
09:24 52.1 °F /  11.2 °C 51 °F /  10.6 °C 29.99in /  1015.5hPa North 0.1mph /  0.2km/h 1mph /  1.6km/h 96% 0.00in /  0mm 21 W/m2
09:29 52.2 °F /  11.2 °C 51.1 °F /  10.6 °C 29.99in /  1015.5hPa Calm   1mph /  1.6km/h 96% 0.00in /  0mm 23 W/m2
09:34 52.2 °F /  11.2 °C 51.1 °F /  10.6 °C 29.99in /  1015.5hPa Calm   1mph /  1.6km/h 96% 0.00in /  0mm 32 W/m2
09:39 52.3 °F /  11.3 °C 51.2 °F /  10.7 °C 29.98in /  1015.1hPa Calm     96% 0.00in /  0mm 39 W/m2
09:44 52.3 °F /  11.3 °C 51.2 °F /  10.7 °C 29.98in /  1015.1hPa Calm     96% 0.00in /  0mm 35 W/m2
09:49 52.4 °F /  11.3 °C 51.3 °F /  10.7 °C 29.98in /  1015.1hPa Calm   2mph /  3.2km/h 96% 0.00in /  0mm 26 W/m2
09:54 52.4 °F /  11.3 °C 51.3 °F /  10.7 °C 29.98in /  1015.1hPa Calm   2mph /  3.2km/h 96% 0.00in /  0mm 33 W/m2
09:59 52.4 °F /  11.3 °C 51.3 °F /  10.7 °C 29.98in /  1015.1hPa Calm   2mph /  3.2km/h 96% 0.00in /  0mm 33 W/m2
10:04 52.4 °F /  11.3 °C 51.3 °F /  10.7 °C 29.98in /  1015.1hPa Calm   2mph /  3.2km/h 96% 0.00in /  0mm 46 W/m2
10:09 52.5 °F /  11.4 °C 51.4 °F /  10.8 °C 29.98in /  1015.1hPa Calm   1mph /  1.6km/h 96% 0.00in /  0mm 49 W/m2
10:14 52.4 °F /  11.3 °C 51.3 °F /  10.7 °C 29.98in /  1015.1hPa Calm   1mph /  1.6km/h 96% 0.00in /  0mm 60 W/m2
10:19 52.5 °F /  11.4 °C 51.4 °F /  10.8 °C 29.97in /  1014.8hPa NNW 0.1mph /  0.2km/h 2mph /  3.2km/h 96% 0.00in /  0mm 58 W/m2
10:24 52.5 °F /  11.4 °C 51.4 °F /  10.8 °C 29.97in /  1014.8hPa NNW 0.1mph /  0.2km/h 2mph /  3.2km/h 96% 0.00in /  0mm 49 W/m2
10:29 52.5 °F /  11.4 °C 51.4 °F /  10.8 °C 29.97in /  1014.8hPa Calm   2mph /  3.2km/h 96% 0.00in /  0mm 49 W/m2
10:34 52.5 °F /  11.4 °C 51.4 °F /  10.8 °C 29.97in /  1014.8hPa Calm   2mph /  3.2km/h 96% 0.00in /  0mm 53 W/m2
10:39 52.5 °F /  11.4 °C 51.4 °F /  10.8 °C 29.97in /  1014.8hPa NNW 0.2mph /  0.3km/h 2mph /  3.2km/h 96% 0.00in /  0mm 47 W/m2
10:44 52.5 °F /  11.4 °C 51.4 °F /  10.8 °C 29.97in /  1014.8hPa Calm   2mph /  3.2km/h 96% 0.00in /  0mm 46 W/m2
10:49 52.6 °F /  11.4 °C 51.5 °F /  10.8 °C 29.97in /  1014.8hPa NNW 0.2mph /  0.3km/h 2mph /  3.2km/h 96% 0.00in /  0mm 49 W/m2
10:54 52.6 °F /  11.4 °C 51.5 °F /  10.8 °C 29.97in /  1014.8hPa Calm   2mph /  3.2km/h 96% 0.00in /  0mm 70 W/m2
10:59 52.7 °F /  11.5 °C 51.6 °F /  10.9 °C 29.97in /  1014.8hPa Calm   2mph /  3.2km/h 96% 0.00in /  0mm 76 W/m2
11:04 52.8 °F /  11.6 °C 51.7 °F /  10.9 °C 29.96in /  1014.4hPa Calm   2mph /  3.2km/h 96% 0.00in /  0mm 76 W/m2
11:09 52.9 °F /  11.6 °C 51.8 °F /  11 °C 29.96in /  1014.4hPa Calm     96% 0.00in /  0mm 90 W/m2
11:14 52.9 °F /  11.6 °C 51.8 °F /  11 °C 29.96in /  1014.4hPa Calm     96% 0.00in /  0mm 84 W/m2
11:19 53 °F /  11.7 °C 51.9 °F /  11.1 °C 29.96in /  1014.4hPa NNW 0.3mph /  0.5km/h 3mph /  4.8km/h 96% 0.00in /  0mm 83 W/m2
11:24 53 °F /  11.7 °C 51.9 °F /  11.1 °C 29.96in /  1014.4hPa NNW 0.3mph /  0.5km/h 3mph /  4.8km/h 96% 0.00in /  0mm 84 W/m2
11:29 53 °F /  11.7 °C 51.9 °F /  11.1 °C 29.96in /  1014.4hPa Calm   3mph /  4.8km/h 96% 0.00in /  0mm 79 W/m2
11:34 53 °F /  11.7 °C 51.9 °F /  11.1 °C 29.96in /  1014.4hPa Calm   3mph /  4.8km/h 96% 0.00in /  0mm 93 W/m2
11:39 53.1 °F /  11.7 °C 52 °F /  11.1 °C 29.95in /  1014.1hPa Calm     96% 0.00in /  0mm 93 W/m2
11:44 53.2 °F /  11.8 °C 52.1 °F /  11.2 °C 29.95in /  1014.1hPa NNW 0.1mph /  0.2km/h 1mph /  1.6km/h 96% 0.00in /  0mm 95 W/m2
11:49 53.3 °F /  11.8 °C 52.2 °F /  11.2 °C 29.95in /  1014.1hPa Calm   1mph /  1.6km/h 96% 0.00in /  0mm 90 W/m2
11:54 53.4 °F /  11.9 °C 52.3 °F /  11.3 °C 29.95in /  1014.1hPa Calm   1mph /  1.6km/h 96% 0.00in /  0mm 65 W/m2
11:59 53.4 °F /  11.9 °C 52.3 °F /  11.3 °C 29.95in /  1014.1hPa Calm   1mph /  1.6km/h 96% 0.00in /  0mm 70 W/m2
12:00 53.4 °F /  11.9 °C 52.3 °F /  11.3 °C 29.95in /  1014.1hPa Calm   1mph /  1.6km/h 96% 0.00in /  0mm 76 W/m2
12:09 53.4 °F /  11.9 °C 52.3 °F /  11.3 °C 29.94in /  1013.8hPa Calm     96% 0.00in /  0mm 107 W/m2
12:14 53.5 °F /  11.9 °C 52.4 °F /  11.3 °C 29.95in /  1014.1hPa NNW 0.1mph /  0.2km/h 1mph /  1.6km/h 96% 0.00in /  0mm 127 W/m2
12:19 53.7 °F /  12.1 °C 52.6 °F /  11.4 °C 29.95in /  1014.1hPa NNW 0.2mph /  0.3km/h 2mph /  3.2km/h 96% 0.00in /  0mm 127 W/m2
12:24 53.7 °F /  12.1 °C 52.6 °F /  11.4 °C 29.95in /  1014.1hPa Calm   2mph /  3.2km/h 96% 0.00in /  0mm 84 W/m2
12:29 53.7 °F /  12.1 °C 52.6 °F /  11.4 °C 29.94in /  1013.8hPa Calm   2mph /  3.2km/h 96% 0.00in /  0mm 81 W/m2
12:34 53.8 °F /  12.1 °C 52.7 °F /  11.5 °C 29.94in /  1013.8hPa Calm   2mph /  3.2km/h 96% 0.00in /  0mm 95 W/m2
12:39 53.8 °F /  12.1 °C 52.7 °F /  11.5 °C 29.94in /  1013.8hPa Calm     96% 0.00in /  0mm 102 W/m2
12:44 53.8 °F /  12.1 °C 52.6 °F /  11.4 °C 29.94in /  1013.8hPa North 0.1mph /  0.2km/h 1mph /  1.6km/h 96% 0.00in /  0mm 120 W/m2
12:49 53.8 °F /  12.1 °C 52.7 °F /  11.5 °C 29.94in /  1013.8hPa Calm   1mph /  1.6km/h 96% 0.00in /  0mm 120 W/m2
12:54 53.9 °F /  12.2 °C 52.8 °F /  11.6 °C 29.94in /  1013.8hPa NNW 0.1mph /  0.2km/h 5mph /  8km/h 96% 0.00in /  0mm 114 W/m2
12:59 53.9 °F /  12.2 °C 52.8 °F /  11.6 °C 29.93in /  1013.4hPa NNW 0.2mph /  0.3km/h 5mph /  8km/h 96% 0.00in /  0mm 123 W/m2
13:04 54 °F /  12.2 °C 52.9 °F /  11.6 °C 29.93in /  1013.4hPa NNE 0.1mph /  0.2km/h 5mph /  8km/h 96% 0.00in /  0mm 116 W/m2
13:09 53.9 °F /  12.2 °C 52.8 °F /  11.6 °C 29.93in /  1013.4hPa North 0.2mph /  0.3km/h 3mph /  4.8km/h 96% 0.00in /  0mm 121 W/m2
13:14 53.9 °F /  12.2 °C 52.8 °F /  11.6 °C 29.93in /  1013.4hPa NE 0.2mph /  0.3km/h 3mph /  4.8km/h 96% 0.00in /  0mm 90 W/m2
13:19 53.9 °F /  12.2 °C 52.8 °F /  11.6 °C 29.92in /  1013.1hPa NE 0.5mph /  0.8km/h 3mph /  4.8km/h 96% 0.00in /  0mm 95 W/m2
13:24 53.8 °F /  12.1 °C 52.6 °F /  11.4 °C 29.92in /  1013.1hPa East 0.2mph /  0.3km/h 3mph /  4.8km/h 96% 0.00in /  0mm 84 W/m2
13:29 53.7 °F /  12.1 °C 52.6 °F /  11.4 °C 29.92in /  1013.1hPa ENE 0.1mph /  0.2km/h 3mph /  4.8km/h 96% 0.00in /  0mm 65 W/m2
13:34 53.6 °F /  12 °C 52.5 °F /  11.4 °C 29.92in /  1013.1hPa NNE 0.1mph /  0.2km/h 3mph /  4.8km/h 96% 0.00in /  0mm 63 W/m2
13:39 53.6 °F /  12 °C 52.5 °F /  11.4 °C 29.92in /  1013.1hPa North 0.4mph /  0.6km/h 2mph /  3.2km/h 96% 0.00in /  0mm 63 W/m2
13:44 53.6 °F /  12 °C 52.5 °F /  11.4 °C 29.92in /  1013.1hPa NNE 0.2mph /  0.3km/h 5mph /  8km/h 96% 0.00in /  0mm 56 W/m2
13:49 53.6 °F /  12 °C 52.5 °F /  11.4 °C 29.92in /  1013.1hPa ENE 0.4mph /  0.6km/h 5mph /  8km/h 96% 0.00in /  0mm 60 W/m2
13:54 53.5 °F /  11.9 °C 52.4 °F /  11.3 °C 29.91in /  1012.8hPa NNE 0.3mph /  0.5km/h 5mph /  8km/h 96% 0.00in /  0mm 65 W/m2
13:59 53.3 °F /  11.8 °C 52.2 °F /  11.2 °C 29.91in /  1012.8hPa ENE 0.4mph /  0.6km/h 5mph /  8km/h 96% 0.00in /  0mm 69 W/m2
14:04 53.2 °F /  11.8 °C 52.1 °F /  11.2 °C 29.91in /  1012.8hPa NE 0.6mph /  1km/h 5mph /  8km/h 96% 0.00in /  0mm 54 W/m2
14:09 53.2 °F /  11.8 °C 52.1 °F /  11.2 °C 29.91in /  1012.8hPa Calm   4mph /  6.4km/h 96% 0.00in /  0mm 60 W/m2
14:14 53.2 °F /  11.8 °C 52.1 °F /  11.2 °C 29.91in /  1012.8hPa ENE 0.2mph /  0.3km/h 4mph /  6.4km/h 96% 0.00in /  0mm 60 W/m2
14:19 53.3 °F /  11.8 °C 52.2 °F /  11.2 °C 29.91in /  1012.8hPa NNE 0.1mph /  0.2km/h 4mph /  6.4km/h 96% 0.00in /  0mm 62 W/m2
14:24 53.4 °F /  11.9 °C 52.3 °F /  11.3 °C 29.91in /  1012.8hPa North 0.1mph /  0.2km/h 4mph /  6.4km/h 96% 0.00in /  0mm 54 W/m2
14:29 53.4 °F /  11.9 °C 52.3 °F /  11.3 °C 29.91in /  1012.8hPa North 0.1mph /  0.2km/h 4mph /  6.4km/h 96% 0.00in /  0mm 62 W/m2
14:34 53.4 °F /  11.9 °C 52.3 °F /  11.3 °C 29.91in /  1012.8hPa Calm   4mph /  6.4km/h 96% 0.00in /  0mm 53 W/m2
14:39 53.3 °F /  11.8 °C 52.2 °F /  11.2 °C 29.91in /  1012.8hPa Calm   1mph /  1.6km/h 96% 0.00in /  0mm 49 W/m2
14:44 53.3 °F /  11.8 °C 52.2 °F /  11.2 °C 29.91in /  1012.8hPa NNE 0.5mph /  0.8km/h 4mph /  6.4km/h 96% 0.00in /  0mm 40 W/m2
14:49 53.4 °F /  11.9 °C 52.3 °F /  11.3 °C 29.91in /  1012.8hPa North 0.1mph /  0.2km/h 4mph /  6.4km/h 96% 0.00in /  0mm 39 W/m2
14:54 53.4 °F /  11.9 °C 52.3 °F /  11.3 °C 29.90in /  1012.4hPa Calm   4mph /  6.4km/h 96% 0.00in /  0mm 35 W/m2
14:59 53.5 °F /  11.9 °C 52.4 °F /  11.3 °C 29.91in /  1012.8hPa NE 0.2mph /  0.3km/h 4mph /  6.4km/h 96% 0.00in /  0mm 49 W/m2
15:04 53.4 °F /  11.9 °C 52.3 °F /  11.3 °C 29.91in /  1012.8hPa ENE 0.2mph /  0.3km/h 4mph /  6.4km/h 96% 0.00in /  0mm 49 W/m2
15:09 53.5 °F /  11.9 °C 52.4 °F /  11.3 °C 29.90in /  1012.4hPa Calm   3mph /  4.8km/h 96% 0.00in /  0mm 47 W/m2
15:14 53.5 °F /  11.9 °C 52.4 °F /  11.3 °C 29.91in /  1012.8hPa ENE 0.1mph /  0.2km/h 3mph /  4.8km/h 96% 0.00in /  0mm 42 W/m2
15:19 53.5 °F /  11.9 °C 52.4 °F /  11.3 °C 29.91in /  1012.8hPa ENE 0.1mph /  0.2km/h 3mph /  4.8km/h 96% 0.00in /  0mm 40 W/m2
15:24 53.5 °F /  11.9 °C 52.4 °F /  11.3 °C 29.91in /  1012.8hPa ENE 0.1mph /  0.2km/h 3mph /  4.8km/h 96% 0.00in /  0mm 44 W/m2
15:29 53.4 °F /  11.9 °C 52.3 °F /  11.3 °C 29.91in /  1012.8hPa ENE 0.3mph /  0.5km/h 3mph /  4.8km/h 96% 0.00in /  0mm 40 W/m2
15:34 53.5 °F /  11.9 °C 52.4 °F /  11.3 °C 29.91in /  1012.8hPa Calm   3mph /  4.8km/h 96% 0.00in /  0mm 40 W/m2
15:39 53.5 °F /  11.9 °C 52.4 °F /  11.3 °C 29.91in /  1012.8hPa Calm     96% 0.00in /  0mm 39 W/m2
15:44 53.6 °F /  12 °C 52.5 °F /  11.4 °C 29.91in /  1012.8hPa Calm     96% 0.00in /  0mm 46 W/m2
15:49 53.6 °F /  12 °C 52.5 °F /  11.4 °C 29.90in /  1012.4hPa Calm   1mph /  1.6km/h 96% 0.00in /  0mm 44 W/m2
15:54 53.6 °F /  12 °C 52.5 °F /  11.4 °C 29.90in /  1012.4hPa Calm   1mph /  1.6km/h 96% 0.00in /  0mm 46 W/m2
15:59 53.7 °F /  12.1 °C 52.6 °F /  11.4 °C 29.90in /  1012.4hPa NE 0.1mph /  0.2km/h 2mph /  3.2km/h 96% 0.00in /  0mm 42 W/m2
16:00 53.7 °F /  12.1 °C 52.6 °F /  11.4 °C 29.89in /  1012.1hPa Calm   2mph /  3.2km/h 96% 0.00in /  0mm 32 W/m2
16:09 53.7 °F /  12.1 °C 52.6 °F /  11.4 °C 29.89in /  1012.1hPa North 0.3mph /  0.5km/h 3mph /  4.8km/h 96% 0.00in /  0mm 32 W/m2
16:14 53.6 °F /  12 °C 52.5 °F /  11.4 °C 29.89in /  1012.1hPa North 0.3mph /  0.5km/h 3mph /  4.8km/h 96% 0.00in /  0mm 32 W/m2
16:19 53.6 °F /  12 °C 52.5 °F /  11.4 °C 29.89in /  1012.1hPa North 0.2mph /  0.3km/h 3mph /  4.8km/h 96% 0.00in /  0mm 32 W/m2
16:24 53.6 °F /  12 °C 52.5 °F /  11.4 °C 29.89in /  1012.1hPa Calm   3mph /  4.8km/h 96% 0.00in /  0mm 23 W/m2
16:29 53.6 °F /  12 °C 52.5 °F /  11.4 °C 29.89in /  1012.1hPa NNW 0.2mph /  0.3km/h 3mph /  4.8km/h 96% 0.00in /  0mm 25 W/m2
16:34 53.5 °F /  11.9 °C 52.4 °F /  11.3 °C 29.89in /  1012.1hPa NW 0.8mph /  1.3km/h 7mph /  11.3km/h 96% 0.00in /  0mm 19 W/m2
16:39 53.4 °F /  11.9 °C 52.3 °F /  11.3 °C 29.89in /  1012.1hPa NW 0.2mph /  0.3km/h 7mph /  11.3km/h 96% 0.00in /  0mm 16 W/m2
16:44 53.4 °F /  11.9 °C 52.3 °F /  11.3 °C 29.89in /  1012.1hPa NW 0.4mph /  0.6km/h 7mph /  11.3km/h 96% 0.00in /  0mm 12 W/m2
16:49 53.4 °F /  11.9 °C 52.2 °F /  11.2 °C 29.89in /  1012.1hPa NNW 0.3mph /  0.5km/h 7mph /  11.3km/h 96% 0.00in /  0mm 14 W/m2
16:54 53.3 °F /  11.8 °C 52.2 °F /  11.2 °C 29.89in /  1012.1hPa NNW 0.1mph /  0.2km/h 7mph /  11.3km/h 96% 0.00in /  0mm 12 W/m2
16:59 53.3 °F /  11.8 °C 52.2 °F /  11.2 °C 29.89in /  1012.1hPa NNW 0.1mph /  0.2km/h 7mph /  11.3km/h 96% 0.00in /  0mm 11 W/m2
17:04 53.3 °F /  11.8 °C 52.2 °F /  11.2 °C 29.89in /  1012.1hPa NNW 0.2mph /  0.3km/h 7mph /  11.3km/h 96% 0.00in /  0mm 11 W/m2
17:09 53.3 °F /  11.8 °C 52.2 °F /  11.2 °C 29.89in /  1012.1hPa NNW 0.5mph /  0.8km/h 5mph /  8km/h 96% 0.00in /  0mm 9 W/m2
17:14 53.2 °F /  11.8 °C 52.1 °F /  11.2 °C 29.89in /  1012.1hPa NNW 0.1mph /  0.2km/h 5mph /  8km/h 96% 0.00in /  0mm 7 W/m2
17:19 53.2 °F /  11.8 °C 52.1 °F /  11.2 °C 29.90in /  1012.4hPa Calm   5mph /  8km/h 96% 0.00in /  0mm 5 W/m2
17:24 53.2 °F /  11.8 °C 52.1 °F /  11.2 °C 29.90in /  1012.4hPa NNW 0.3mph /  0.5km/h 5mph /  8km/h 96% 0.00in /  0mm 5 W/m2
17:29 53.1 °F /  11.7 °C 52 °F /  11.1 °C 29.89in /  1012.1hPa North 0.2mph /  0.3km/h 5mph /  8km/h 96% 0.00in /  0mm 7 W/m2
17:34 53.1 °F /  11.7 °C 52 °F /  11.1 °C 29.89in /  1012.1hPa NE 0.1mph /  0.2km/h 5mph /  8km/h 96% 0.00in /  0mm 7 W/m2
17:39 53.1 °F /  11.7 °C 52 °F /  11.1 °C 29.89in /  1012.1hPa Calm   1mph /  1.6km/h 96% 0.00in /  0mm 5 W/m2
17:44 53.1 °F /  11.7 °C 52 °F /  11.1 °C 29.89in /  1012.1hPa North 0.5mph /  0.8km/h 5mph /  8km/h 96% 0.00in /  0mm 0 W/m2
17:49 53.1 °F /  11.7 °C 52 °F /  11.1 °C 29.89in /  1012.1hPa NNE 0.2mph /  0.3km/h 5mph /  8km/h 96% 0.00in /  0mm 0 W/m2
17:54 53 °F /  11.7 °C 51.9 °F /  11.1 °C 29.89in /  1012.1hPa NNE 0.1mph /  0.2km/h 5mph /  8km/h 96% 0.00in /  0mm 0 W/m2
17:59 53 °F /  11.7 °C 51.9 °F /  11.1 °C 29.89in /  1012.1hPa NNE 0.1mph /  0.2km/h 5mph /  8km/h 96% 0.00in /  0mm 0 W/m2
18:04 53 °F /  11.7 °C 51.9 °F /  11.1 °C 29.89in /  1012.1hPa Calm   5mph /  8km/h 96% 0.00in /  0mm 0 W/m2
18:09 52.9 °F /  11.6 °C 51.8 °F /  11 °C 29.89in /  1012.1hPa NW 0.3mph /  0.5km/h 3mph /  4.8km/h 96% 0.00in /  0mm 0 W/m2
18:14 52.9 °F /  11.6 °C 51.8 °F /  11 °C 29.89in /  1012.1hPa NW 0.4mph /  0.6km/h 5mph /  8km/h 96% 0.00in /  0mm 0 W/m2
18:19 52.9 °F /  11.6 °C 51.8 °F /  11 °C 29.88in /  1011.7hPa NW 0.6mph /  1km/h 5mph /  8km/h 96% 0.00in /  0mm 0 W/m2
18:24 52.8 °F /  11.6 °C 51.7 °F /  10.9 °C 29.88in /  1011.7hPa NNW 0.2mph /  0.3km/h 5mph /  8km/h 96% 0.00in /  0mm 0 W/m2
18:29 52.8 °F /  11.6 °C 51.7 °F /  10.9 °C 29.88in /  1011.7hPa NNE 0.1mph /  0.2km/h 5mph /  8km/h 96% 0.00in /  0mm 0 W/m2
18:34 52.8 °F /  11.6 °C 51.7 °F /  10.9 °C 29.88in /  1011.7hPa NNW 0.3mph /  0.5km/h 5mph /  8km/h 96% 0.00in /  0mm 0 W/m2
18:39 52.7 °F /  11.5 °C 51.6 °F /  10.9 °C 29.88in /  1011.7hPa NNW 0.5mph /  0.8km/h 4mph /  6.4km/h 96% 0.00in /  0mm 0 W/m2
18:44 52.7 °F /  11.5 °C 51.6 °F /  10.9 °C 29.88in /  1011.7hPa NE 0.1mph /  0.2km/h 4mph /  6.4km/h 96% 0.00in /  0mm 0 W/m2
18:49 52.7 °F /  11.5 °C 51.6 °F /  10.9 °C 29.88in /  1011.7hPa NNE 0.1mph /  0.2km/h 4mph /  6.4km/h 96% 0.00in /  0mm 0 W/m2
18:54 52.7 °F /  11.5 °C 51.6 °F /  10.9 °C 29.88in /  1011.7hPa North 0.3mph /  0.5km/h 4mph /  6.4km/h 96% 0.00in /  0mm 0 W/m2
18:59 52.7 °F /  11.5 °C 51.6 °F /  10.9 °C 29.88in /  1011.7hPa Calm   4mph /  6.4km/h 96% 0.00in /  0mm 0 W/m2
19:04 52.7 °F /  11.5 °C 51.6 °F /  10.9 °C 29.88in /  1011.7hPa North 0.1mph /  0.2km/h 4mph /  6.4km/h 96% 0.00in /  0mm 0 W/m2
19:09 52.7 °F /  11.5 °C 51.6 °F /  10.9 °C 29.89in /  1012.1hPa NNW 0.2mph /  0.3km/h 4mph /  6.4km/h 96% 0.00in /  0mm 0 W/m2
19:14 52.7 °F /  11.5 °C 51.6 °F /  10.9 °C 29.89in /  1012.1hPa NNW 0.1mph /  0.2km/h 4mph /  6.4km/h 96% 0.00in /  0mm 0 W/m2
19:19 52.7 °F /  11.5 °C 51.6 °F /  10.9 °C 29.89in /  1012.1hPa NNW 0.1mph /  0.2km/h 4mph /  6.4km/h 96% 0.00in /  0mm 0 W/m2
19:24 52.7 °F /  11.5 °C 51.6 °F /  10.9 °C 29.89in /  1012.1hPa NNE 0.1mph /  0.2km/h 4mph /  6.4km/h 96% 0.00in /  0mm 0 W/m2
19:29 52.7 °F /  11.5 °C 51.6 °F /  10.9 °C 29.88in /  1011.7hPa Calm   4mph /  6.4km/h 96% 0.00in /  0mm 0 W/m2
19:34 52.6 °F /  11.4 °C 51.5 °F /  10.8 °C 29.88in /  1011.7hPa NE 0.1mph /  0.2km/h 4mph /  6.4km/h 96% 0.00in /  0mm 0 W/m2
19:39 52.6 °F /  11.4 °C 51.5 °F /  10.8 °C 29.88in /  1011.7hPa Calm   2mph /  3.2km/h 96% 0.00in /  0mm 0 W/m2
19:44 52.6 °F /  11.4 °C 51.5 °F /  10.8 °C 29.88in /  1011.7hPa NNE 0.3mph /  0.5km/h 3mph /  4.8km/h 96% 0.00in /  0mm 0 W/m2
19:49 52.6 °F /  11.4 °C 51.5 °F /  10.8 °C 29.89in /  1012.1hPa NE 0.3mph /  0.5km/h 4mph /  6.4km/h 96% 0.00in /  0mm 0 W/m2
19:54 52.5 °F /  11.4 °C 51.4 °F /  10.8 °C 29.89in /  1012.1hPa NE 0.1mph /  0.2km/h 4mph /  6.4km/h 96% 0.00in /  0mm 0 W/m2
19:59 52.5 °F /  11.4 °C 51.4 °F /  10.8 °C 29.89in /  1012.1hPa NNE 0.1mph /  0.2km/h 4mph /  6.4km/h 96% 0.00in /  0mm 0 W/m2
20:00 52.6 °F /  11.4 °C 51.5 °F /  10.8 °C 29.88in /  1011.7hPa Calm   4mph /  6.4km/h 96% 0.00in /  0mm 0 W/m2
20:09 52.6 °F /  11.4 °C 51.5 °F /  10.8 °C 29.89in /  1012.1hPa NNW 0.2mph /  0.3km/h 3mph /  4.8km/h 96% 0.00in /  0mm 0 W/m2
20:14 52.6 °F /  11.4 °C 51.5 °F /  10.8 °C 29.89in /  1012.1hPa NNW 0.4mph /  0.6km/h 4mph /  6.4km/h 96% 0.00in /  0mm 0 W/m2
20:19 52.6 °F /  11.4 °C 51.5 °F /  10.8 °C 29.89in /  1012.1hPa NE 0.4mph /  0.6km/h 4mph /  6.4km/h 96% 0.00in /  0mm 0 W/m2
20:24 52.5 °F /  11.4 °C 51.4 °F /  10.8 °C 29.88in /  1011.7hPa NE 0.1mph /  0.2km/h 4mph /  6.4km/h 96% 0.00in /  0mm 0 W/m2
20:29 52.5 °F /  11.4 °C 51.4 °F /  10.8 °C 29.88in /  1011.7hPa Calm   4mph /  6.4km/h 96% 0.00in /  0mm 0 W/m2
20:34 52.5 °F /  11.4 °C 51.4 °F /  10.8 °C 29.87in /  1011.4hPa ENE 0.9mph /  1.4km/h 6mph /  9.7km/h 96% 0.00in /  0mm 0 W/m2
20:39 52.4 °F /  11.3 °C 51.3 °F /  10.7 °C 29.87in /  1011.4hPa NE 0.5mph /  0.8km/h 6mph /  9.7km/h 96% 0.00in /  0mm 0 W/m2
20:44 52.4 °F /  11.3 °C 51.3 °F /  10.7 °C 29.87in /  1011.4hPa NNE 0.5mph /  0.8km/h 6mph /  9.7km/h 96% 0.00in /  0mm 0 W/m2
20:49 52.4 °F /  11.3 °C 51.3 °F /  10.7 °C 29.87in /  1011.4hPa Calm   6mph /  9.7km/h 96% 0.00in /  0mm 0 W/m2
20:54 52.4 °F /  11.3 °C 51.3 °F /  10.7 °C 29.87in /  1011.4hPa ENE 0.2mph /  0.3km/h 6mph /  9.7km/h 96% 0.00in /  0mm 0 W/m2
20:59 52.4 °F /  11.3 °C 51.3 °F /  10.7 °C 29.87in /  1011.4hPa NNE 0.1mph /  0.2km/h 6mph /  9.7km/h 96% 0.00in /  0mm 0 W/m2
21:04 52.3 °F /  11.3 °C 51.2 °F /  10.7 °C 29.87in /  1011.4hPa East 0.3mph /  0.5km/h 6mph /  9.7km/h 96% 0.00in /  0mm 0 W/m2
21:09 52.3 °F /  11.3 °C 51.2 °F /  10.7 °C 29.87in /  1011.4hPa NE 0.2mph /  0.3km/h 4mph /  6.4km/h 96% 0.00in /  0mm 0 W/m2
21:14 52.2 °F /  11.2 °C 51.1 °F /  10.6 °C 29.87in /  1011.4hPa NE 0.1mph /  0.2km/h 4mph /  6.4km/h 96% 0.00in /  0mm 0 W/m2
21:19 52.2 °F /  11.2 °C 51.1 °F /  10.6 °C 29.87in /  1011.4hPa ENE 0.2mph /  0.3km/h 4mph /  6.4km/h 96% 0.00in /  0mm 0 W/m2
21:24 52.1 °F /  11.2 °C 51 °F /  10.6 °C 29.87in /  1011.4hPa Calm   4mph /  6.4km/h 96% 0.00in /  0mm 0 W/m2
21:29 52.1 °F /  11.2 °C 51 °F /  10.6 °C 29.87in /  1011.4hPa NNW 0.2mph /  0.3km/h 6mph /  9.7km/h 96% 0.00in /  0mm 0 W/m2
21:34 52.1 °F /  11.2 °C 51 °F /  10.6 °C 29.87in /  1011.4hPa North 0.4mph /  0.6km/h 6mph /  9.7km/h 96% 0.00in /  0mm 0 W/m2
21:39 52 °F /  11.1 °C 50.9 °F /  10.5 °C 29.86in /  1011.1hPa NNW 0.2mph /  0.3km/h 5mph /  8km/h 96% 0.00in /  0mm 0 W/m2
21:44 52 °F /  11.1 °C 50.9 °F /  10.5 °C 29.87in /  1011.4hPa NNE 0.3mph /  0.5km/h 5mph /  8km/h 96% 0.00in /  0mm 0 W/m2
21:49 52 °F /  11.1 °C 50.9 °F /  10.5 °C 29.87in /  1011.4hPa ENE 0.2mph /  0.3km/h 5mph /  8km/h 96% 0.00in /  0mm 0 W/m2
21:54 51.9 °F /  11.1 °C 50.8 °F /  10.4 °C 29.86in /  1011.1hPa NE 0.3mph /  0.5km/h 5mph /  8km/h 96% 0.00in /  0mm 0 W/m2
21:59 51.9 °F /  11.1 °C 50.8 °F /  10.4 °C 29.86in /  1011.1hPa NE 0.5mph /  0.8km/h 6mph /  9.7km/h 96% 0.00in /  0mm 0 W/m2
22:04 51.8 °F /  11 °C 50.7 °F /  10.4 °C 29.86in /  1011.1hPa ENE 0.4mph /  0.6km/h 6mph /  9.7km/h 96% 0.00in /  0mm 0 W/m2
22:09 51.7 °F /  10.9 °C 50.6 °F /  10.3 °C 29.86in /  1011.1hPa ENE 0.2mph /  0.3km/h 3mph /  4.8km/h 96% 0.00in /  0mm 0 W/m2
22:14 51.7 °F /  10.9 °C 50.6 °F /  10.3 °C 29.86in /  1011.1hPa NNW 0.4mph /  0.6km/h 6mph /  9.7km/h 96% 0.00in /  0mm 0 W/m2
22:19 51.6 °F /  10.9 °C 50.5 °F /  10.3 °C 29.86in /  1011.1hPa NE 0.5mph /  0.8km/h 6mph /  9.7km/h 96% 0.00in /  0mm 0 W/m2
22:24 51.6 °F /  10.9 °C 50.5 °F /  10.3 °C 29.86in /  1011.1hPa NNE 0.1mph /  0.2km/h 6mph /  9.7km/h 96% 0.00in /  0mm 0 W/m2
22:29 51.5 °F /  10.8 °C 50.4 °F /  10.2 °C 29.86in /  1011.1hPa NE 0.4mph /  0.6km/h 6mph /  9.7km/h 96% 0.00in /  0mm 0 W/m2
22:34 51.4 °F /  10.8 °C 50.3 °F /  10.2 °C 29.86in /  1011.1hPa NE 0.2mph /  0.3km/h 6mph /  9.7km/h 96% 0.00in /  0mm 0 W/m2
22:39 51.4 °F /  10.8 °C 50.3 °F /  10.2 °C 29.86in /  1011.1hPa NNE 0.4mph /  0.6km/h 5mph /  8km/h 96% 0.00in /  0mm 0 W/m2
22:44 51.3 °F /  10.7 °C 50.2 °F /  10.1 °C 29.86in /  1011.1hPa NNE 0.7mph /  1.1km/h 5mph /  8km/h 96% 0.00in /  0mm 0 W/m2
22:49 51.2 °F /  10.7 °C 50.1 °F /  10.1 °C 29.85in /  1010.7hPa ENE 0.3mph /  0.5km/h 5mph /  8km/h 96% 0.00in /  0mm 0 W/m2
22:54 51.2 °F /  10.7 °C 50.1 °F /  10.1 °C 29.85in /  1010.7hPa NE 0.5mph /  0.8km/h 5mph /  8km/h 96% 0.00in /  0mm 0 W/m2
22:59 51.1 °F /  10.6 °C 50 °F /  10 °C 29.85in /  1010.7hPa NNE 0.4mph /  0.6km/h 5mph /  8km/h 96% 0.00in /  0mm 0 W/m2
23:04 51.1 °F /  10.6 °C 50 °F /  10 °C 29.85in /  1010.7hPa North 1mph /  1.6km/h 13mph /  20.9km/h 96% 0.00in /  0mm 0 W/m2
23:09 51 °F /  10.6 °C 49.9 °F /  9.9 °C 29.84in /  1010.4hPa North 0.6mph /  1km/h 13mph /  20.9km/h 96% 0.00in /  0mm 0 W/m2
23:14 51 °F /  10.6 °C 49.9 °F /  9.9 °C 29.84in /  1010.4hPa NNE 0.4mph /  0.6km/h 13mph /  20.9km/h 96% 0.00in /  0mm 0 W/m2
23:19 50.8 °F /  10.4 °C 49.7 °F /  9.8 °C 29.84in /  1010.4hPa NNW 0.5mph /  0.8km/h 13mph /  20.9km/h 96% 0.00in /  0mm 0 W/m2
23:24 50.8 °F /  10.4 °C 49.7 °F /  9.8 °C 29.84in /  1010.4hPa NNW 0.7mph /  1.1km/h 13mph /  20.9km/h 96% 0.00in /  0mm 0 W/m2
23:29 50.8 °F /  10.4 °C 49.7 °F /  9.8 °C 29.84in /  1010.4hPa NNW 0.4mph /  0.6km/h 13mph /  20.9km/h 96% 0.00in /  0mm 0 W/m2
23:34 50.7 °F /  10.4 °C 49.6 °F /  9.8 °C 29.84in /  1010.4hPa NNE 0.2mph /  0.3km/h 13mph /  20.9km/h 96% 0.01in /  0.25mm 0 W/m2
23:39 50.6 °F /  10.3 °C 49.5 °F /  9.7 °C 29.84in /  1010.4hPa NNE 0.6mph /  1km/h 5mph /  8km/h 96% 0.01in /  0.25mm 0 W/m2
23:44 50.6 °F /  10.3 °C 49.5 °F /  9.7 °C 29.84in /  1010.4hPa NNE 0.3mph /  0.5km/h 6mph /  9.7km/h 96% 0.01in /  0.25mm 0 W/m2
23:49 50.6 °F /  10.3 °C 49.5 °F /  9.7 °C 29.84in /  1010.4hPa NW 1mph /  1.6km/h 7mph /  11.3km/h 96% 0.01in /  0.25mm 0 W/m2
23:54 50.5 °F /  10.3 °C 49.4 °F /  9.7 °C 29.83in /  1010hPa NNE 0.5mph /  0.8km/h 10mph /  16.1km/h 96% 0.01in /  0.25mm 0 W/m2
23:59 50.4 °F /  10.2 °C 49.4 °F /  9.7 °C 29.83in /  1010hPa NNW 0.3mph /  0.5km/h 10mph /  16.1km/h 96% 0.02in /  0.51mm 0 W/m2
Hartford County Weather
Compliments of Weather Underground - 2 mb